Time;durP1;ratioP1;P1;durP2;ratioP2;P2;SDS_P1;SDS_P2;PMS_P1;PMS_P2;Temp;Humidity;BMP_temperature;BMP_pressure;BME280_temperature;BME280_humidity;BME280_pressure;Samples;Min_cycle;Max_cycle;Signal;HPM_P1;HPM_P2
2024/04/16 00:01:53;;;;;;;14.50;1.85;;;5.30;99.90;;;;;;5429736;26;20016;-77
2024/04/16 00:04:19;;;;;;;14.48;1.52;;;5.20;99.90;;;;;;5427620;26;20006;-77
2024/04/16 00:06:46;;;;;;;14.65;1.52;;;5.20;99.90;;;;;;5417880;26;20009;-77
2024/04/16 00:09:12;;;;;;;13.23;1.73;;;5.30;99.90;;;;;;5394774;26;22174;-77
2024/04/16 00:11:39;;;;;;;11.90;1.73;;;5.30;99.90;;;;;;5456777;25;21418;-77
2024/04/16 00:14:16;;;;;;;13.05;1.70;;;5.40;99.90;;;;;;5379852;26;20417;-77
2024/04/16 00:16:51;;;;;;;22.27;2.10;;;5.50;99.90;;;;;;5373319;26;19998;-77
2024/04/16 00:19:18;;;;;;;21.00;2.15;;;5.60;99.90;;;;;;5424984;26;21832;-77
2024/04/16 00:21:45;;;;;;;17.65;2.05;;;5.70;99.90;;;;;;5421155;26;20118;-77
2024/04/16 00:24:12;;;;;;;20.20;2.30;;;5.70;99.90;;;;;;5422210;26;19999;-77
2024/04/16 00:26:39;;;;;;;10.63;1.73;;;5.80;99.90;;;;;;5407536;26;20344;-76
2024/04/16 00:29:05;;;;;;;13.48;1.65;;;5.90;99.90;;;;;;5376543;26;20014;-77
2024/04/16 00:31:32;;;;;;;17.33;2.60;;;5.90;99.90;;;;;;5424154;26;20052;-79
2024/04/16 00:33:58;;;;;;;14.48;1.90;;;5.90;99.90;;;;;;5421875;26;20607;-77
2024/04/16 00:36:24;;;;;;;17.05;1.85;;;6.00;99.90;;;;;;5359176;26;20010;-77
2024/04/16 00:38:51;;;;;;;11.07;2.22;;;6.00;99.90;;;;;;5394519;26;20453;-77
2024/04/16 00:41:17;;;;;;;12.32;1.30;;;6.10;99.90;;;;;;5400333;26;20346;-77
2024/04/16 00:43:43;;;;;;;13.35;1.50;;;6.10;99.90;;;;;;5407175;26;20337;-76
2024/04/16 00:46:11;;;;;;;17.58;1.48;;;6.10;99.90;;;;;;5390381;26;20880;-76
2024/04/16 00:48:38;;;;;;;19.25;2.53;;;6.10;99.90;;;;;;5395641;26;20017;-77
2024/04/16 00:51:05;;;;;;;13.45;1.48;;;6.20;99.90;;;;;;5417558;26;20256;-77
2024/04/16 00:53:31;;;;;;;14.52;1.60;;;6.20;99.90;;;;;;5395468;26;22711;-77
2024/04/16 00:55:58;;;;;;;11.07;1.15;;;6.20;99.90;;;;;;5434441;26;20010;-77
2024/04/16 00:58:26;;;;;;;9.75;1.10;;;6.30;99.90;;;;;;5400074;26;20461;-77
2024/04/16 01:00:52;;;;;;;11.50;1.90;;;6.30;99.90;;;;;;5462800;25;20045;-77
2024/04/16 01:03:19;;;;;;;8.52;1.27;;;6.20;99.90;;;;;;5404021;26;20342;-77
2024/04/16 01:05:45;;;;;;;14.32;1.25;;;6.20;99.90;;;;;;5422113;26;20002;-77
2024/04/16 01:08:12;;;;;;;12.05;1.02;;;6.20;99.90;;;;;;5388407;26;20002;-77
2024/04/16 01:10:39;;;;;;;13.43;1.40;;;6.20;99.90;;;;;;5426654;26;20920;-77
2024/04/16 01:13:07;;;;;;;14.02;1.85;;;6.20;99.90;;;;;;5400812;26;20001;-77
2024/04/16 01:15:33;;;;;;;17.30;1.85;;;6.20;99.90;;;;;;5395318;26;20018;-78
2024/04/16 01:18:01;;;;;;;14.23;1.58;;;6.20;99.90;;;;;;5396153;26;20033;-77
2024/04/16 01:20:29;;;;;;;10.32;1.33;;;6.30;99.90;;;;;;5425545;26;20160;-78
2024/04/16 01:22:55;;;;;;;10.63;1.77;;;6.20;99.90;;;;;;5425791;26;20017;-77
2024/04/16 01:25:21;;;;;;;11.60;1.77;;;6.20;99.90;;;;;;5401813;26;20437;-77
2024/04/16 01:27:48;;;;;;;11.68;1.40;;;6.20;99.90;;;;;;5434602;26;20013;-77
2024/04/16 01:30:15;;;;;;;9.10;1.98;;;6.20;99.90;;;;;;5423334;26;19999;-77
2024/04/16 01:32:41;;;;;;;10.02;1.27;;;6.30;99.90;;;;;;5401758;26;20021;-76
2024/04/16 01:35:09;;;;;;;10.63;1.08;;;6.30;99.90;;;;;;5455575;25;20002;-77
2024/04/16 01:37:36;;;;;;;6.10;1.30;;;6.30;99.90;;;;;;5376303;26;22093;-76
2024/04/16 01:40:02;;;;;;;12.13;1.52;;;6.20;99.90;;;;;;5412523;26;20020;-76
2024/04/16 01:42:29;;;;;;;6.90;1.00;;;6.20;99.90;;;;;;5433609;26;20461;-76
2024/04/16 01:44:58;;;;;;;9.98;1.40;;;6.20;99.90;;;;;;5403995;26;20031;-76
2024/04/16 01:47:25;;;;;;;8.10;1.00;;;6.20;99.90;;;;;;5405175;26;20773;-77
2024/04/16 01:49:51;;;;;;;16.10;1.33;;;6.10;99.90;;;;;;5430059;26;20014;-76
2024/04/16 01:52:18;;;;;;;6.82;0.95;;;6.10;99.90;;;;;;5431905;26;20009;-76
2024/04/16 01:54:44;;;;;;;10.63;1.35;;;6.10;99.90;;;;;;5438699;26;20406;-76
2024/04/16 01:57:10;;;;;;;8.85;1.17;;;6.10;99.90;;;;;;5405902;26;20016;-76
2024/04/16 01:59:37;;;;;;;9.90;1.25;;;6.10;99.90;;;;;;5410356;26;20020;-76
2024/04/16 02:02:03;;;;;;;7.50;0.90;;;6.10;99.90;;;;;;5428929;26;20012;-76
2024/04/16 02:04:30;;;;;;;10.70;0.80;;;6.20;99.90;;;;;;5433855;26;20013;-77
2024/04/16 02:06:56;;;;;;;6.45;0.90;;;6.20;99.90;;;;;;5373709;26;20010;-76
2024/04/16 02:09:23;;;;;;;6.10;0.82;;;6.20;99.90;;;;;;5408609;26;20103;-76
2024/04/16 02:11:49;;;;;;;4.47;0.75;;;6.20;99.90;;;;;;5434895;26;20010;-76
2024/04/16 02:14:15;;;;;;;7.25;0.95;;;6.10;99.90;;;;;;5374696;26;22904;-77
2024/04/16 02:16:42;;;;;;;10.43;0.95;;;6.00;99.90;;;;;;5428747;26;20003;-76
2024/04/16 02:19:08;;;;;;;7.07;0.70;;;6.00;99.90;;;;;;5369209;26;20006;-76
2024/04/16 02:21:34;;;;;;;5.95;0.77;;;5.90;99.90;;;;;;5397097;26;19998;-76
2024/04/16 02:24:01;;;;;;;5.65;0.47;;;5.90;99.90;;;;;;5424860;26;20016;-76
2024/04/16 02:26:27;;;;;;;3.80;0.60;;;5.90;99.90;;;;;;5424770;26;20338;-76
2024/04/16 02:28:53;;;;;;;6.05;0.75;;;6.00;99.90;;;;;;5427686;26;19999;-76
2024/04/16 02:31:20;;;;;;;6.10;0.68;;;6.10;99.90;;;;;;5433913;26;20006;-75
2024/04/16 02:33:46;;;;;;;8.88;1.35;;;6.10;99.90;;;;;;5380704;26;21898;-76
2024/04/16 02:36:12;;;;;;;6.90;0.70;;;6.20;99.90;;;;;;5379948;26;20006;-77
2024/04/16 02:38:39;;;;;;;6.75;0.70;;;6.20;99.90;;;;;;5432089;26;20165;-76
2024/04/16 02:41:05;;;;;;;6.72;0.73;;;6.20;99.90;;;;;;5373176;26;20003;-78
2024/04/16 02:43:31;;;;;;;5.15;0.32;;;6.10;99.90;;;;;;5421991;26;20006;-76
2024/04/16 02:46:00;;;;;;;1.20;0.30;;;6.10;99.90;;;;;;5404414;26;20006;-77
2024/04/16 02:48:26;;;;;;;2.47;0.30;;;6.00;99.90;;;;;;5440571;26;20006;-76
2024/04/16 02:50:54;;;;;;;1.23;0.30;;;5.90;99.90;;;;;;5405157;26;20020;-75
2024/04/16 02:53:20;;;;;;;1.35;0.20;;;5.90;99.90;;;;;;5426739;26;20365;-77
2024/04/16 02:55:47;;;;;;;1.60;0.25;;;5.90;99.90;;;;;;5428238;26;20024;-76
2024/04/16 02:58:13;;;;;;;1.20;0.20;;;5.80;99.90;;;;;;5424216;26;21262;-76
2024/04/16 03:00:39;;;;;;;4.85;0.20;;;5.70;99.90;;;;;;5436528;26;20414;-76
2024/04/16 03:03:06;;;;;;;1.65;0.10;;;5.70;99.90;;;;;;5442961;26;19998;-76
2024/04/16 03:05:32;;;;;;;1.67;0.15;;;5.60;99.90;;;;;;5431171;26;19995;-76
2024/04/16 03:07:58;;;;;;;2.15;0.35;;;5.50;99.90;;;;;;5401463;26;20006;-76
2024/04/16 03:10:25;;;;;;;0.57;0.20;;;5.40;99.90;;;;;;5431490;26;20484;-76
2024/04/16 03:12:52;;;;;;;2.20;0.20;;;5.30;99.90;;;;;;5430840;26;20017;-76
2024/04/16 03:15:19;;;;;;;1.75;0.52;;;5.30;99.90;;;;;;5405438;26;20012;-76
2024/04/16 03:17:45;;;;;;;3.78;0.20;;;5.30;99.90;;;;;;5412048;26;20014;-76
2024/04/16 03:20:11;;;;;;;0.73;0.17;;;5.20;99.90;;;;;;5400553;26;20013;-76
2024/04/16 03:22:38;;;;;;;0.68;0.30;;;5.20;99.90;;;;;;5430403;26;20051;-76
2024/04/16 03:25:05;;;;;;;4.28;0.30;;;5.20;99.90;;;;;;5400486;26;20341;-77
2024/04/16 03:27:31;;;;;;;1.23;0.20;;;5.20;99.90;;;;;;5430165;26;20006;-77
2024/04/16 03:29:58;;;;;;;1.30;0.20;;;5.20;99.90;;;;;;5438592;26;20012;-77
2024/04/16 03:32:24;;;;;;;3.95;0.30;;;5.20;99.90;;;;;;5438839;26;20015;-76
2024/04/16 03:34:51;;;;;;;1.35;0.20;;;5.20;99.90;;;;;;5398548;26;20009;-76
2024/04/16 03:37:17;;;;;;;1.65;0.20;;;5.10;99.90;;;;;;5400335;26;20021;-76
2024/04/16 03:39:43;;;;;;;0.82;0.10;;;5.10;99.90;;;;;;5369467;26;20461;-76
2024/04/16 03:42:10;;;;;;;1.35;0.20;;;5.10;99.90;;;;;;5376980;26;20010;-76
2024/04/16 03:44:36;;;;;;;1.13;0.30;;;5.10;99.90;;;;;;5411891;26;20006;-76
2024/04/16 03:47:03;;;;;;;1.35;0.30;;;5.20;99.90;;;;;;5430642;26;19994;-76
2024/04/16 03:49:29;;;;;;;1.60;0.30;;;5.20;99.90;;;;;;5400502;26;20006;-76
2024/04/16 03:51:55;;;;;;;1.23;0.30;;;5.20;99.90;;;;;;5429475;26;20073;-76
2024/04/16 03:54:22;;;;;;;4.82;0.60;;;5.30;99.90;;;;;;5429213;26;20005;-77
2024/04/16 03:56:48;;;;;;;5.97;0.50;;;5.30;99.90;;;;;;5410248;26;20010;-77
2024/04/16 03:59:16;;;;;;;4.93;0.50;;;5.30;99.90;;;;;;5407555;26;21219;-76
2024/04/16 04:01:42;;;;;;;5.72;0.65;;;5.40;99.90;;;;;;5405826;26;20002;-77
2024/04/16 04:04:09;;;;;;;3.13;0.60;;;5.40;99.90;;;;;;5368125;26;19998;-77
2024/04/16 04:06:35;;;;;;;5.60;0.47;;;5.50;99.90;;;;;;5404302;26;19998;-76
2024/04/16 04:09:02;;;;;;;6.57;0.60;;;5.50;99.90;;;;;;5434036;26;20006;-76
2024/04/16 04:11:28;;;;;;;6.15;0.70;;;5.50;99.90;;;;;;5378094;26;20724;-76
2024/04/16 04:13:55;;;;;;;2.40;0.50;;;5.50;99.90;;;;;;5430051;26;20504;-76
2024/04/16 04:16:21;;;;;;;3.35;0.50;;;5.50;99.90;;;;;;5402506;26;20020;-76
2024/04/16 04:18:48;;;;;;;2.70;0.50;;;5.50;99.90;;;;;;5425719;26;20009;-76
2024/04/16 04:21:14;;;;;;;4.32;0.70;;;5.60;99.90;;;;;;5426722;26;20018;-76
2024/04/16 04:23:41;;;;;;;2.80;0.55;;;5.60;99.90;;;;;;5460914;25;20020;-76
2024/04/16 04:26:07;;;;;;;2.33;0.50;;;5.60;99.90;;;;;;5407319;26;20002;-76
2024/04/16 04:28:33;;;;;;;4.20;0.63;;;5.60;99.90;;;;;;5433765;26;20006;-76
2024/04/16 04:31:14;;;;;;;4.13;0.60;;;5.70;99.90;;;;;;5424879;26;20707;-76
2024/04/16 04:33:40;;;;;;;3.33;0.70;;;5.70;99.90;;;;;;5429640;26;20013;-76
2024/04/16 04:36:08;;;;;;;4.63;0.70;;;5.70;99.90;;;;;;5438221;26;20006;-76
2024/04/16 04:38:34;;;;;;;4.45;0.80;;;5.80;99.90;;;;;;5435978;26;20002;-76
2024/04/16 04:41:00;;;;;;;5.38;0.80;;;5.80;99.90;;;;;;5397660;26;20006;-77
2024/04/16 04:43:27;;;;;;;7.72;0.82;;;5.80;99.90;;;;;;5427366;26;20479;-76
2024/04/16 04:45:53;;;;;;;4.28;0.70;;;5.80;99.90;;;;;;5425445;26;20010;-77
2024/04/16 04:48:20;;;;;;;5.22;0.90;;;5.80;99.90;;;;;;5400725;26;19998;-77
2024/04/16 04:50:46;;;;;;;3.40;0.70;;;5.80;99.90;;;;;;5442074;26;20433;-77
2024/04/16 04:53:12;;;;;;;5.85;1.00;;;5.90;99.90;;;;;;5431235;26;20012;-77
2024/04/16 04:55:39;;;;;;;5.65;0.85;;;5.90;99.90;;;;;;5426235;26;20001;-77
2024/04/16 04:58:05;;;;;;;12.13;1.42;;;5.90;99.90;;;;;;5399470;26;20460;-77
2024/04/16 05:00:32;;;;;;;9.05;1.67;;;5.90;99.90;;;;;;5400338;26;20006;-78
2024/04/16 05:02:59;;;;;;;4.70;1.20;;;5.90;99.90;;;;;;5383050;26;20006;-78
2024/04/16 05:05:26;;;;;;;2.80;1.25;;;5.90;99.90;;;;;;5403667;26;20564;-78
2024/04/16 05:07:52;;;;;;;6.57;2.08;;;5.90;99.90;;;;;;5429181;26;20021;-79
2024/04/16 05:10:18;;;;;;;10.45;2.15;;;5.90;99.90;;;;;;5430818;26;20002;-79
2024/04/16 05:12:45;;;;;;;8.50;3.25;;;5.90;99.90;;;;;;5427142;26;20006;-81
2024/04/16 05:15:11;;;;;;;8.05;3.05;;;5.90;99.90;;;;;;5400822;26;20013;-82
2024/04/16 05:17:38;;;;;;;7.60;3.65;;;6.00;99.90;;;;;;5410374;26;20338;-82
2024/04/16 05:20:05;;;;;;;11.50;3.40;;;5.90;99.90;;;;;;5437964;26;20002;-81
2024/04/16 05:22:31;;;;;;;7.22;3.03;;;6.00;99.90;;;;;;5428763;26;20009;-80
2024/04/16 05:24:58;;;;;;;10.65;2.58;;;6.00;99.90;;;;;;5399727;26;20017;-81
2024/04/16 05:27:25;;;;;;;7.43;1.45;;;5.90;99.90;;;;;;5433973;26;20008;-81
2024/04/16 05:29:51;;;;;;;3.72;0.88;;;5.90;99.90;;;;;;5407859;26;20010;-81
2024/04/16 05:32:17;;;;;;;4.63;0.70;;;5.90;99.90;;;;;;5410222;26;20803;-80
2024/04/16 05:34:44;;;;;;;3.75;0.70;;;5.80;99.90;;;;;;5403787;26;19998;-81
2024/04/16 05:37:11;;;;;;;2.55;0.60;;;5.80;99.90;;;;;;5406851;26;20449;-82
2024/04/16 05:39:37;;;;;;;4.13;1.10;;;5.70;99.90;;;;;;5401977;26;20024;-82
2024/04/16 05:42:04;;;;;;;4.07;0.80;;;5.70;99.90;;;;;;5400936;26;20041;-82
2024/04/16 05:44:30;;;;;;;5.43;0.70;;;5.70;99.90;;;;;;5441209;26;20010;-80
2024/04/16 05:46:57;;;;;;;4.30;0.70;;;5.70;99.90;;;;;;5401683;26;20006;-81
2024/04/16 05:49:23;;;;;;;4.30;0.80;;;5.70;99.90;;;;;;5402667;26;20013;-82
2024/04/16 05:51:50;;;;;;;3.70;1.20;;;5.70;99.90;;;;;;5396831;26;19998;-83
2024/04/16 05:54:16;;;;;;;3.47;1.00;;;5.70;99.90;;;;;;5375406;26;21664;-81
2024/04/16 05:56:42;;;;;;;3.67;1.25;;;5.80;99.90;;;;;;5440771;26;20024;-81
2024/04/16 05:59:09;;;;;;;4.07;1.02;;;5.80;99.90;;;;;;5436872;26;20002;-80
2024/04/16 06:01:35;;;;;;;2.20;1.15;;;5.90;99.90;;;;;;5372390;26;19994;-79
2024/04/16 06:04:02;;;;;;;3.65;1.13;;;5.90;99.90;;;;;;5370245;26;20008;-79
2024/04/16 06:06:28;;;;;;;2.97;1.10;;;5.90;99.90;;;;;;5403147;26;20345;-80
2024/04/16 06:08:55;;;;;;;4.53;1.73;;;6.00;99.90;;;;;;5403837;26;20446;-78
2024/04/16 06:11:21;;;;;;;3.15;1.80;;;6.00;99.90;;;;;;5463657;25;20006;-78
2024/04/16 06:13:47;;;;;;;6.43;2.00;;;6.10;99.90;;;;;;5428997;26;20016;-78
2024/04/16 06:16:14;;;;;;;5.03;2.00;;;6.20;99.90;;;;;;5430210;26;20021;-78
2024/04/16 06:18:42;;;;;;;6.28;2.42;;;6.20;99.90;;;;;;5401034;26;20002;-77
2024/04/16 06:21:09;;;;;;;6.90;2.55;;;6.30;99.90;;;;;;5369777;26;20762;-77
2024/04/16 06:23:36;;;;;;;5.18;3.08;;;6.30;99.90;;;;;;5404676;26;20010;-77
2024/04/16 06:26:07;;;;;;;4.15;2.50;;;6.40;99.90;;;;;;5435446;26;20014;-77
2024/04/16 06:28:34;;;;;;;6.10;2.97;;;6.40;99.90;;;;;;5427007;26;19998;-76
2024/04/16 06:31:00;;;;;;;8.48;3.28;;;6.50;99.90;;;;;;5368380;26;20021;-77
2024/04/16 06:33:28;;;;;;;7.53;2.72;;;6.50;99.90;;;;;;5429067;26;19999;-76
2024/04/16 06:35:55;;;;;;;7.20;3.20;;;6.60;99.90;;;;;;5428771;26;20016;-77
2024/04/16 06:38:24;;;;;;;8.90;3.25;;;6.70;99.90;;;;;;5437845;26;20003;-76
2024/04/16 06:40:51;;;;;;;8.68;3.45;;;6.70;99.90;;;;;;5403198;26;20010;-76
2024/04/16 06:43:18;;;;;;;11.15;2.95;;;6.80;99.90;;;;;;5393804;26;20022;-76
2024/04/16 06:45:44;;;;;;;12.40;2.95;;;7.00;99.90;;;;;;5423310;26;20373;-76
2024/04/16 06:48:10;;;;;;;10.55;3.28;;;7.10;99.90;;;;;;5397342;26;20010;-76
2024/04/16 06:50:37;;;;;;;11.05;3.50;;;7.20;99.90;;;;;;5451208;26;20010;-77
2024/04/16 06:53:04;;;;;;;11.68;3.25;;;7.40;99.90;;;;;;5401999;26;20894;-76
2024/04/16 06:55:30;;;;;;;9.73;2.90;;;7.50;99.90;;;;;;5435555;26;20006;-76
2024/04/16 06:57:57;;;;;;;12.93;2.50;;;7.60;99.90;;;;;;5434457;26;20016;-76
2024/04/16 07:00:24;;;;;;;12.77;2.70;;;7.70;99.90;;;;;;5453303;25;20002;-76
2024/04/16 07:02:50;;;;;;;9.90;2.33;;;7.80;99.90;;;;;;5394803;26;20769;-76
2024/04/16 07:05:17;;;;;;;12.20;2.35;;;7.90;99.90;;;;;;5392326;26;19999;-77
2024/04/16 07:07:43;;;;;;;9.93;2.17;;;8.20;99.90;;;;;;5393979;26;20009;-76
2024/04/16 07:10:11;;;;;;;9.73;2.28;;;8.50;99.90;;;;;;5426002;26;20109;-76
2024/04/16 07:12:37;;;;;;;7.85;1.98;;;8.50;99.90;;;;;;5436022;26;20569;-76
2024/04/16 07:15:04;;;;;;;10.68;2.25;;;8.50;99.90;;;;;;5376141;26;20024;-77
2024/04/16 07:17:30;;;;;;;8.73;2.33;;;8.40;99.90;;;;;;5398995;26;20460;-76
2024/04/16 07:19:57;;;;;;;12.20;3.03;;;8.40;99.90;;;;;;5428581;26;20016;-75
2024/04/16 07:22:23;;;;;;;13.18;2.97;;;8.50;99.90;;;;;;5427627;26;20010;-76
2024/04/16 07:24:50;;;;;;;17.13;3.20;;;8.50;99.90;;;;;;5369786;26;20002;-75
2024/04/16 07:27:17;;;;;;;20.35;3.65;;;8.60;99.90;;;;;;5380508;26;20002;-77
2024/04/16 07:29:43;;;;;;;18.15;3.95;;;8.60;99.90;;;;;;5440907;26;20547;-76
2024/04/16 07:32:10;;;;;;;15.73;3.50;;;8.60;99.90;;;;;;5409711;26;20862;-76
2024/04/16 07:34:36;;;;;;;15.68;3.20;;;8.50;99.90;;;;;;5429924;26;20010;-76
2024/04/16 07:37:03;;;;;;;12.63;2.63;;;8.50;99.90;;;;;;5403947;26;20781;-78
2024/04/16 07:39:29;;;;;;;15.25;3.45;;;8.30;99.90;;;;;;5405243;26;20001;-79
2024/04/16 07:41:55;;;;;;;21.55;3.47;;;8.30;99.90;;;;;;5428048;26;20028;-76
2024/04/16 07:44:22;;;;;;;14.18;3.17;;;8.20;99.90;;;;;;5397154;26;20005;-78
2024/04/16 07:46:48;;;;;;;14.40;2.58;;;8.20;99.90;;;;;;5432777;26;20012;-79
2024/04/16 07:49:15;;;;;;;15.00;3.47;;;8.20;99.90;;;;;;5440839;26;20002;-78
2024/04/16 07:51:41;;;;;;;9.93;2.88;;;8.30;99.90;;;;;;5431552;26;20010;-77
2024/04/16 07:54:08;;;;;;;11.10;2.80;;;8.40;99.90;;;;;;5395888;26;20021;-77
2024/04/16 07:56:34;;;;;;;14.50;2.05;;;8.70;99.90;;;;;;5430345;26;20399;-77
2024/04/16 07:59:01;;;;;;;15.30;2.15;;;8.90;99.90;;;;;;5460857;26;20737;-77
2024/04/16 08:01:27;;;;;;;16.30;2.83;;;8.90;99.90;;;;;;5396484;26;20008;-77
2024/04/16 08:03:54;;;;;;;14.88;2.97;;;9.00;99.90;;;;;;5429285;26;20002;-78
2024/04/16 08:06:20;;;;;;;15.55;3.30;;;9.10;99.90;;;;;;5410032;26;20670;-78
2024/04/16 08:08:47;;;;;;;11.57;2.13;;;9.20;99.90;;;;;;5378851;26;20006;-77
2024/04/16 08:11:13;;;;;;;13.60;2.83;;;9.30;99.90;;;;;;5399090;26;20021;-78
2024/04/16 08:13:40;;;;;;;13.13;2.15;;;9.40;99.90;;;;;;5392369;26;20002;-78
2024/04/16 08:16:07;;;;;;;12.93;1.70;;;9.40;99.90;;;;;;5451817;26;20006;-78
2024/04/16 08:18:34;;;;;;;10.55;1.80;;;9.30;99.90;;;;;;5398070;26;20013;-78
2024/04/16 08:21:00;;;;;;;11.63;1.80;;;9.40;99.90;;;;;;5458518;26;20010;-78
2024/04/16 08:23:27;;;;;;;8.52;1.40;;;9.60;99.90;;;;;;5429651;26;20006;-78
2024/04/16 08:26:00;;;;;;;8.75;1.83;;;9.80;99.90;;;;;;5432023;26;20317;-79
2024/04/16 08:28:27;;;;;;;15.05;2.38;;;9.90;99.90;;;;;;5436116;26;20010;-78
2024/04/16 08:31:03;;;;;;;14.27;5.20;;;10.10;99.90;;;;;;5441223;26;20003;-79
2024/04/16 08:33:30;;;;;;;7.78;1.73;;;10.20;99.90;;;;;;5400750;26;20002;-78
2024/04/16 08:35:56;;;;;;;7.68;2.05;;;10.20;99.90;;;;;;5396938;26;20002;-79
2024/04/16 08:38:23;;;;;;;6.80;1.10;;;10.20;99.90;;;;;;5405467;26;20025;-80
2024/04/16 08:40:49;;;;;;;6.82;1.02;;;10.30;99.90;;;;;;5425163;26;20014;-79
2024/04/16 08:43:16;;;;;;;5.43;0.70;;;10.30;99.90;;;;;;5429886;26;20010;-78
2024/04/16 08:45:43;;;;;;;5.40;0.70;;;10.30;99.90;;;;;;5466202;25;20454;-79
2024/04/16 08:48:11;;;;;;;10.70;0.50;;;10.20;99.90;;;;;;5439211;26;19998;-77
2024/04/16 08:50:37;;;;;;;3.38;0.50;;;10.20;99.90;;;;;;5433393;26;20014;-77
2024/04/16 08:53:04;;;;;;;2.33;0.40;;;10.10;99.90;;;;;;5457233;25;19994;-78
2024/04/16 08:55:34;;;;;;;5.55;0.47;;;10.10;99.90;;;;;;5429129;26;20007;-79
2024/04/16 08:58:00;;;;;;;5.65;0.50;;;10.10;99.90;;;;;;5428731;26;20009;-79
2024/04/16 09:00:27;;;;;;;4.03;0.30;;;10.10;99.90;;;;;;5454791;25;20001;-77
2024/04/16 09:02:53;;;;;;;2.70;0.40;;;10.10;99.90;;;;;;5401651;26;19998;-77
2024/04/16 09:05:20;;;;;;;1.73;0.40;;;10.10;99.90;;;;;;5433752;26;21712;-78
2024/04/16 09:07:47;;;;;;;3.78;0.40;;;10.20;99.90;;;;;;5409648;26;20020;-78
2024/04/16 09:10:21;;;;;;;3.47;0.50;;;10.40;99.90;;;;;;5409784;26;19999;-78
2024/04/16 09:12:48;;;;;;;2.90;0.50;;;10.60;99.90;;;;;;5400253;26;19994;-77
2024/04/16 09:15:17;;;;;;;4.68;0.40;;;10.70;99.90;;;;;;5370208;26;20018;-77
2024/04/16 09:17:50;;;;;;;5.25;0.40;;;10.60;99.90;;;;;;5398525;26;19998;-76
2024/04/16 09:20:18;;;;;;;4.05;0.45;;;10.40;99.90;;;;;;5431704;26;20010;-76
2024/04/16 09:22:49;;;;;;;5.70;0.57;;;10.30;99.90;;;;;;5428136;26;20010;-76
2024/04/16 09:25:20;;;;;;;10.15;0.70;;;10.40;99.90;;;;;;5404325;26;20024;-77
2024/04/16 09:27:47;;;;;;;4.93;0.55;;;10.60;99.90;;;;;;5409341;26;20447;-77
2024/04/16 09:30:16;;;;;;;3.13;0.63;;;10.80;99.90;;;;;;5442462;26;20006;-76
2024/04/16 09:32:45;;;;;;;3.80;0.47;;;10.90;99.90;;;;;;5370769;26;20020;-77
2024/04/16 09:35:12;;;;;;;3.90;0.70;;;11.20;99.90;;;;;;5400395;26;20009;-75
2024/04/16 09:37:38;;;;;;;5.47;0.57;;;11.30;99.90;;;;;;5400186;26;20006;-76
2024/04/16 09:40:07;;;;;;;4.63;0.60;;;11.20;99.90;;;;;;5430458;26;20097;-76
2024/04/16 09:42:36;;;;;;;6.80;1.02;;;11.00;99.90;;;;;;5425968;26;21113;-76
2024/04/16 09:45:05;;;;;;;6.20;0.60;;;11.00;99.90;;;;;;5401237;26;20443;-76
2024/04/16 09:47:34;;;;;;;5.25;0.70;;;11.10;99.90;;;;;;5443945;26;20016;-76
2024/04/16 09:50:01;;;;;;;5.75;0.60;;;11.10;99.90;;;;;;5433947;26;19994;-76
2024/04/16 09:52:32;;;;;;;4.65;0.50;;;11.10;99.90;;;;;;5426884;26;20006;-76
2024/04/16 09:55:01;;;;;;;7.75;1.00;;;11.20;99.90;;;;;;5426909;26;20028;-77
2024/04/16 09:57:30;;;;;;;4.55;0.50;;;11.00;99.90;;;;;;5391827;26;20006;-77
2024/04/16 09:59:58;;;;;;;4.57;0.40;;;10.70;99.90;;;;;;5366966;26;20008;-77
2024/04/16 10:02:26;;;;;;;4.30;0.50;;;10.50;99.90;;;;;;5456897;25;20779;-77
2024/04/16 10:04:55;;;;;;;3.25;0.30;;;10.40;99.90;;;;;;5460997;26;20185;-77
2024/04/16 10:07:21;;;;;;;4.82;0.50;;;10.40;99.90;;;;;;5411810;26;20002;-78
2024/04/16 10:09:48;;;;;;;4.00;0.50;;;10.40;99.90;;;;;;5391646;26;20009;-77
2024/04/16 10:12:15;;;;;;;8.63;0.60;;;10.50;99.90;;;;;;5446913;25;20029;-76
2024/04/16 10:14:43;;;;;;;7.40;0.43;;;10.70;99.90;;;;;;5451274;25;20074;-76
2024/04/16 10:17:13;;;;;;;2.13;0.45;;;10.80;99.90;;;;;;5424485;26;20016;-77
2024/04/16 10:19:39;;;;;;;6.70;0.60;;;11.00;99.90;;;;;;5375102;26;20479;-77
2024/04/16 10:22:13;;;;;;;6.10;0.43;;;11.20;99.90;;;;;;5435257;26;20010;-77
2024/04/16 10:24:51;;;;;;;5.57;0.43;;;11.30;99.90;;;;;;5446507;26;20013;-77
2024/04/16 10:27:26;;;;;;;4.30;0.50;;;11.60;99.90;;;;;;5446644;26;20378;-77
2024/04/16 10:30:15;;;;;;;3.33;0.40;;;11.80;99.90;;;;;;5365751;26;21501;-76
2024/04/16 10:32:47;;;;;;;5.95;0.50;;;11.90;99.90;;;;;;5419734;26;20010;-76
2024/04/16 10:35:16;;;;;;;4.57;0.30;;;12.00;99.90;;;;;;5427564;26;20017;-77
2024/04/16 10:37:47;;;;;;;4.72;0.40;;;12.20;99.90;;;;;;5490747;25;20619;-77
2024/04/16 10:40:23;;;;;;;1.80;0.30;;;12.40;99.90;;;;;;5433979;26;20002;-77
2024/04/16 10:42:52;;;;;;;4.30;0.35;;;12.60;99.90;;;;;;5425240;26;20522;-77
2024/04/16 10:45:20;;;;;;;2.70;0.50;;;12.80;99.90;;;;;;5422583;26;20012;-78
2024/04/16 10:47:48;;;;;;;2.17;0.17;;;13.10;99.90;;;;;;5422126;26;20002;-78
2024/04/16 10:50:15;;;;;;;3.67;0.30;;;13.40;99.90;;;;;;5448803;25;20010;-77
2024/04/16 10:52:41;;;;;;;3.75;0.40;;;13.60;99.90;;;;;;5430371;26;20014;-78
2024/04/16 10:55:08;;;;;;;3.10;0.22;;;13.60;99.90;;;;;;5431296;26;20002;-79
2024/04/16 10:57:38;;;;;;;1.10;0.20;;;13.50;99.90;;;;;;5441351;26;20020;-79
2024/04/16 11:00:05;;;;;;;1.58;0.30;;;13.70;99.90;;;;;;5399959;26;20011;-78
2024/04/16 11:02:32;;;;;;;2.85;0.30;;;13.80;99.90;;;;;;5426010;26;20017;-78
2024/04/16 11:04:59;;;;;;;3.45;0.60;;;14.00;99.90;;;;;;5396284;26;21754;-76
2024/04/16 11:07:26;;;;;;;4.35;0.30;;;13.80;99.90;;;;;;5428812;26;20443;-75
2024/04/16 11:09:52;;;;;;;1.13;0.20;;;13.40;99.90;;;;;;5429281;26;20012;-76
2024/04/16 11:12:20;;;;;;;1.38;0.20;;;13.10;99.90;;;;;;5401594;26;20349;-75
2024/04/16 11:14:47;;;;;;;1.77;0.15;;;13.30;99.90;;;;;;5438553;26;20006;-76
2024/04/16 11:17:14;;;;;;;1.67;0.10;;;13.70;99.90;;;;;;5424490;26;19994;-75
2024/04/16 11:19:40;;;;;;;2.00;0.17;;;14.10;99.90;;;;;;5369415;26;20014;-75
2024/04/16 11:22:07;;;;;;;1.80;0.10;;;14.50;99.90;;;;;;5426627;26;20497;-76
2024/04/16 11:24:33;;;;;;;1.00;0.10;;;14.90;99.90;;;;;;5423308;26;21337;-76
2024/04/16 11:27:00;;;;;;;3.03;0.20;;;15.40;99.90;;;;;;5400816;26;20032;-76
2024/04/16 11:29:26;;;;;;;0.77;0.13;;;15.60;99.90;;;;;;5399880;26;20014;-76
2024/04/16 11:31:53;;;;;;;1.20;0.10;;;15.80;99.90;;;;;;5499344;25;20583;-77
2024/04/16 11:34:23;;;;;;;1.05;0.17;;;16.10;99.90;;;;;;5432162;26;20006;-77
2024/04/16 11:36:51;;;;;;;0.60;0.10;;;16.80;99.90;;;;;;5430073;26;20008;-76
2024/04/16 11:39:17;;;;;;;1.13;0.40;;;17.40;99.90;;;;;;5430482;26;20453;-77
2024/04/16 11:41:44;;;;;;;4.05;1.10;;;17.70;99.90;;;;;;5420900;26;20021;-76
2024/04/16 11:44:10;;;;;;;3.72;1.55;;;17.40;99.90;;;;;;5394530;26;20021;-77
2024/04/16 11:46:37;;;;;;;8.13;4.53;;;17.10;99.90;;;;;;5424372;26;20551;-76
2024/04/16 11:49:04;;;;;;;3.03;1.10;;;16.70;99.90;;;;;;5431973;26;20010;-76
2024/04/16 11:51:33;;;;;;;0.90;0.30;;;16.20;99.90;;;;;;5440893;26;20479;-76
2024/04/16 11:53:59;;;;;;;0.80;0.10;;;15.70;99.90;;;;;;5391018;26;20010;-77
2024/04/16 11:56:25;;;;;;;0.43;0.10;;;15.30;99.90;;;;;;5371642;26;20006;-77
2024/04/16 11:58:52;;;;;;;1.27;0.20;;;15.00;99.90;;;;;;5420583;26;20010;-76
2024/04/16 12:01:19;;;;;;;1.00;0.10;;;15.00;99.90;;;;;;5392832;26;20092;-77
2024/04/16 12:03:46;;;;;;;0.68;0.00;;;14.90;99.90;;;;;;5393494;26;20010;-77
2024/04/16 12:06:12;;;;;;;1.10;0.10;;;15.10;99.90;;;;;;5432135;26;20442;-76
2024/04/16 12:08:39;;;;;;;2.70;0.10;;;15.70;99.90;;;;;;5409968;26;19994;-77
2024/04/16 12:11:05;;;;;;;1.10;0.10;;;16.70;99.90;;;;;;5427158;26;19998;-77
2024/04/16 12:13:32;;;;;;;2.85;1.20;;;17.70;99.90;;;;;;5423881;26;20024;-78
2024/04/16 12:15:59;;;;;;;1.02;0.20;;;18.30;99.90;;;;;;5426530;26;20070;-77
2024/04/16 12:18:25;;;;;;;0.30;0.10;;;18.10;99.90;;;;;;5433826;26;19998;-77
2024/04/16 12:20:51;;;;;;;0.75;0.10;;;17.90;99.90;;;;;;5373954;26;20010;-77
2024/04/16 12:23:18;;;;;;;1.13;0.10;;;18.30;99.90;;;;;;5407425;26;20475;-75
2024/04/16 12:25:45;;;;;;;0.75;0.10;;;19.10;99.90;;;;;;5407482;26;20006;-76
2024/04/16 12:28:11;;;;;;;0.77;0.08;;;19.90;99.90;;;;;;5458000;26;20021;-76
2024/04/16 12:30:38;;;;;;;1.20;0.13;;;19.60;99.90;;;;;;5376638;26;20468;-77
2024/04/16 12:33:04;;;;;;;2.47;0.20;;;18.50;99.90;;;;;;5430362;26;20008;-77
2024/04/16 12:35:30;;;;;;;0.43;0.00;;;17.20;99.90;;;;;;5462237;25;20006;-77
2024/04/16 12:37:57;;;;;;;0.57;0.00;;;15.80;99.90;;;;;;5430739;26;21398;-77
2024/04/16 12:40:24;;;;;;;1.45;0.10;;;14.90;99.90;;;;;;5410576;26;19994;-76
2024/04/16 12:42:51;;;;;;;0.40;0.10;;;14.50;99.90;;;;;;5442403;26;20002;-78
2024/04/16 12:45:18;;;;;;;0.57;0.10;;;14.60;99.90;;;;;;5437039;26;20028;-78
2024/04/16 12:47:44;;;;;;;0.82;0.10;;;15.40;99.90;;;;;;5433040;26;20025;-77
2024/04/16 12:50:10;;;;;;;0.43;0.10;;;16.40;99.90;;;;;;5377176;26;19998;-78